Time;durP1;ratioP1;P1;durP2;ratioP2;P2;SDS_P1;SDS_P2;PMS_P1;PMS_P2;Temp;Humidity;BMP_temperature;BMP_pressure;BME280_temperature;BME280_humidity;BME280_pressure;Samples;Min_cycle;Max_cycle;Signal;HPM_P1;HPM_P2
2023/10/22 00:00:16;;;;;;;4.10;2.50;;;;;;;14.46;68.88;96602.13;10359754;28;20050;-71
2023/10/22 00:05:57;;;;;;;4.35;2.65;;;;;;;14.51;68.97;96607.25;10282054;28;20057;-70
2023/10/22 00:11:17;;;;;;;7.30;2.60;;;;;;;14.54;70.43;96614.34;10293287;28;20074;-70
2023/10/22 00:16:38;;;;;;;3.55;1.77;;;;;;;14.54;70.18;96634.00;10252294;28;20054;-70
2023/10/22 00:21:59;;;;;;;3.97;1.52;;;;;;;14.60;70.64;96625.81;10265276;28;20049;-70
2023/10/22 00:27:20;;;;;;;4.53;1.50;;;;;;;14.66;70.55;96636.50;10293105;28;20066;-70
2023/10/22 00:32:41;;;;;;;2.80;1.20;;;;;;;14.67;70.70;96637.22;10278484;28;20062;-70
2023/10/22 00:38:01;;;;;;;3.75;0.85;;;;;;;14.64;70.82;96633.63;10265195;28;20051;-71
2023/10/22 00:43:23;;;;;;;2.15;0.80;;;;;;;14.57;71.00;96634.78;10278322;28;20051;-71
2023/10/22 00:48:45;;;;;;;3.00;0.70;;;;;;;14.57;71.32;96635.53;10264872;28;20078;-70
2023/10/22 00:54:05;;;;;;;4.15;0.63;;;;;;;14.47;71.91;96637.97;10280554;28;20118;-70
2023/10/22 00:59:26;;;;;;;3.35;0.68;;;;;;;14.38;72.27;96646.72;10272085;28;20125;-70
2023/10/22 01:04:47;;;;;;;2.40;0.60;;;;;;;14.25;72.36;96679.28;10310422;28;20058;-71
2023/10/22 01:10:09;;;;;;;1.13;0.40;;;;;;;14.17;72.62;96701.41;10338700;28;20043;-71
2023/10/22 01:15:30;;;;;;;1.52;0.50;;;;;;;14.02;74.19;96709.31;10325037;28;20491;-71
2023/10/22 01:20:51;;;;;;;1.30;0.40;;;;;;;13.92;74.29;96705.41;10324504;28;20117;-70
2023/10/22 01:26:13;;;;;;;0.90;0.22;;;;;;;13.71;74.63;96704.66;10338155;28;20407;-70
2023/10/22 01:31:34;;;;;;;2.30;0.30;;;;;;;13.50;75.55;96702.41;10338148;28;20042;-69
2023/10/22 01:36:55;;;;;;;1.30;0.20;;;;;;;13.26;75.60;96696.56;10337653;28;20485;-71
2023/10/22 01:42:16;;;;;;;1.40;0.40;;;;;;;13.08;76.36;96704.19;10337702;28;20081;-70
2023/10/22 01:47:37;;;;;;;1.88;0.30;;;;;;;12.95;76.47;96711.38;10337315;28;20146;-71
2023/10/22 01:52:58;;;;;;;2.22;0.20;;;;;;;12.82;77.03;96720.59;10323639;28;20047;-71
2023/10/22 01:58:18;;;;;;;3.45;0.20;;;;;;;12.74;77.50;96709.81;10323253;28;20050;-70
2023/10/22 02:03:45;;;;;;;1.90;0.30;;;;;;;12.71;77.95;96725.06;10309255;28;20047;-70
2023/10/22 02:09:06;;;;;;;0.47;0.20;;;;;;;12.63;77.73;96735.91;10337239;28;20049;-68
2023/10/22 02:14:28;;;;;;;0.88;0.20;;;;;;;12.67;78.25;96752.16;10336263;28;20050;-70
2023/10/22 02:19:50;;;;;;;2.45;0.25;;;;;;;12.69;78.37;96752.25;10336245;28;20050;-71
2023/10/22 02:25:13;;;;;;;0.98;0.30;;;;;;;12.67;79.04;96761.28;10322065;28;20114;-70
2023/10/22 02:30:34;;;;;;;0.85;0.20;;;;;;;12.71;78.60;96755.84;10336649;28;20046;-70
2023/10/22 02:35:55;;;;;;;1.20;0.17;;;;;;;12.72;78.60;96746.09;10321813;28;20109;-70
2023/10/22 02:41:16;;;;;;;0.70;0.30;;;;;;;12.70;79.10;96750.91;10335633;28;20046;-71
2023/10/22 02:46:37;;;;;;;0.57;0.10;;;;;;;12.66;78.80;96748.66;10335772;28;20046;-71
2023/10/22 02:51:58;;;;;;;1.52;0.20;;;;;;;12.70;78.96;96757.22;10321395;28;20049;-70
2023/10/22 02:57:20;;;;;;;0.50;0.10;;;;;;;12.63;79.17;96763.91;10335633;28;20070;-70
2023/10/22 03:02:40;;;;;;;0.50;0.10;;;;;;;12.64;79.34;96770.94;10334082;28;20051;-70
2023/10/22 03:08:03;;;;;;;1.40;0.10;;;;;;;12.60;79.63;96771.50;10334283;28;20042;-70
2023/10/22 03:13:24;;;;;;;2.58;0.10;;;;;;;12.63;80.00;96780.69;10334861;28;20046;-70
2023/10/22 03:18:46;;;;;;;0.20;0.03;;;;;;;12.61;79.34;96786.22;10333335;28;20400;-70
2023/10/22 03:24:11;;;;;;;0.57;0.10;;;;;;;12.55;79.42;96792.28;10320479;28;20538;-70
2023/10/22 03:29:32;;;;;;;0.35;0.10;;;;;;;12.51;79.68;96786.47;10333384;28;20096;-70
2023/10/22 03:34:53;;;;;;;0.95;0.10;;;;;;;12.49;79.86;96794.06;10319971;28;20045;-70
2023/10/22 03:40:14;;;;;;;1.10;0.10;;;;;;;12.49;80.06;96799.66;10334140;28;20053;-70
2023/10/22 03:45:38;;;;;;;2.17;0.10;;;;;;;12.47;80.59;96802.38;10334239;28;20046;-71
2023/10/22 03:50:59;;;;;;;1.52;0.28;;;;;;;12.46;80.85;96809.34;10332920;28;20061;-70
2023/10/22 03:56:20;;;;;;;0.73;0.10;;;;;;;12.43;80.61;96814.09;10333792;28;20416;-70
2023/10/22 04:01:41;;;;;;;2.15;0.40;;;;;;;12.46;80.45;96817.75;10319290;28;20038;-70
2023/10/22 04:07:02;;;;;;;0.35;0.17;;;;;;;12.43;80.81;96816.19;10332573;28;20046;-71
2023/10/22 04:12:24;;;;;;;1.73;0.17;;;;;;;12.40;81.04;96809.06;10333278;28;20042;-71
2023/10/22 04:17:46;;;;;;;1.88;0.10;;;;;;;12.36;81.21;96812.41;10320285;28;20050;-71
2023/10/22 04:23:10;;;;;;;0.47;0.10;;;;;;;12.37;81.19;96818.72;10319416;28;20042;-70
2023/10/22 04:28:31;;;;;;;;;;;;;;;12.41;81.58;96827.28;10335983;28;20046;-72
2023/10/22 04:33:53;;;;;;;0.45;0.13;;;;;;;12.44;81.27;96826.75;10332163;28;19929;-74
2023/10/22 04:39:14;;;;;;;1.17;0.32;;;;;;;12.43;81.56;96835.78;10328305;28;20050;-70
2023/10/22 04:44:35;;;;;;;0.75;0.17;;;;;;;12.45;81.23;96838.66;10340774;28;20042;-70
2023/10/22 04:49:56;;;;;;;0.88;0.20;;;;;;;12.38;81.65;96836.97;10341095;28;20070;-70
2023/10/22 04:55:17;;;;;;;1.80;0.20;;;;;;;12.42;81.86;96851.13;10339790;28;20130;-70
2023/10/22 05:00:38;;;;;;;0.93;0.20;;;;;;;12.45;81.75;96853.41;10312506;28;20129;-70
2023/10/22 05:06:04;;;;;;;1.38;0.30;;;;;;;12.46;81.93;96851.31;10298944;28;20078;-70
2023/10/22 05:11:29;;;;;;;2.70;0.30;;;;;;;12.49;81.85;96856.38;10286774;28;20455;-70
2023/10/22 05:16:52;;;;;;;0.70;0.30;;;;;;;12.48;81.77;96873.81;10298922;28;20070;-70
2023/10/22 05:22:12;;;;;;;1.40;0.30;;;;;;;12.49;82.06;96878.75;10298349;28;20126;-70
2023/10/22 05:27:33;;;;;;;1.35;0.50;;;;;;;12.51;82.07;96880.94;10298188;28;20119;-70
2023/10/22 05:32:54;;;;;;;4.07;2.70;;;;;;;12.54;82.11;96893.66;10297647;28;20122;-70
2023/10/22 05:38:14;;;;;;;2.78;0.80;;;;;;;12.56;82.00;96904.97;10297724;28;20114;-71
2023/10/22 05:43:35;;;;;;;2.80;0.98;;;;;;;12.56;82.11;96916.16;10283876;28;20123;-71
2023/10/22 05:48:56;;;;;;;1.92;1.00;;;;;;;12.59;82.01;96915.63;10283711;28;20137;-71
2023/10/22 05:54:17;;;;;;;2.05;0.50;;;;;;;12.65;82.04;96918.00;10297202;28;20118;-71
2023/10/22 05:59:38;;;;;;;1.95;0.90;;;;;;;12.67;81.93;96936.97;10297774;28;20082;-70
2023/10/22 06:04:59;;;;;;;3.42;0.93;;;;;;;12.70;82.03;96947.63;10324193;28;20459;-70
2023/10/22 06:10:27;;;;;;;2.40;0.80;;;;;;;12.63;81.03;96945.16;10336720;28;20109;-70
2023/10/22 06:15:48;;;;;;;3.08;0.85;;;;;;;12.65;81.31;96951.59;10336623;28;20092;-69
2023/10/22 06:21:12;;;;;;;4.70;1.00;;;;;;;12.71;81.53;96949.06;10336381;28;20070;-71
2023/10/22 06:26:33;;;;;;;2.65;0.65;;;;;;;12.76;81.37;96970.31;10322330;28;20440;-70
2023/10/22 06:31:54;;;;;;;1.75;0.57;;;;;;;12.79;81.02;96966.25;10336090;28;20070;-70
2023/10/22 06:37:15;;;;;;;1.10;0.40;;;;;;;12.86;80.88;96981.97;10336136;28;20097;-70
2023/10/22 06:42:36;;;;;;;1.90;0.70;;;;;;;13.10;80.47;96990.03;10336160;28;20046;-71
2023/10/22 06:47:56;;;;;;;2.05;0.60;;;;;;;13.36;79.98;96998.94;10335143;28;20165;-70
2023/10/22 06:53:17;;;;;;;2.13;0.55;;;;;;;13.63;78.89;96995.94;10335251;28;20114;-71
2023/10/22 06:58:38;;;;;;;1.38;0.40;;;;;;;13.87;78.88;97010.28;10334901;28;20125;-71
2023/10/22 07:03:58;;;;;;;3.22;0.68;;;;;;;14.06;77.73;97011.06;10334263;28;20134;-71
2023/10/22 07:09:23;;;;;;;1.48;0.60;;;;;;;14.42;76.94;97018.19;10334465;28;20077;-70
2023/10/22 07:14:44;;;;;;;0.95;0.30;;;;;;;15.09;75.75;97020.16;10335239;28;20480;-71
2023/10/22 07:20:06;;;;;;;4.40;0.63;;;;;;;15.43;74.67;97020.72;10334237;28;20073;-71
2023/10/22 07:25:27;;;;;;;1.80;0.52;;;;;;;14.98;74.09;97029.56;10320347;28;20042;-70
2023/10/22 07:30:48;;;;;;;1.02;0.30;;;;;;;14.77;74.17;97028.78;10320035;28;20081;-70
2023/10/22 07:36:09;;;;;;;1.42;0.40;;;;;;;15.06;73.47;97039.03;10333705;28;20118;-71
2023/10/22 07:41:30;;;;;;;1.40;0.50;;;;;;;16.30;73.19;97037.19;10333451;28;20548;-69
2023/10/22 07:46:50;;;;;;;0.85;0.32;;;;;;;17.39;69.52;97053.38;10333242;28;20129;-71
2023/10/22 07:52:11;;;;;;;2.08;0.40;;;;;;;17.29;68.27;97047.44;10334011;28;20113;-71
2023/10/22 07:57:32;;;;;;;1.08;0.25;;;;;;;17.06;67.33;97048.81;10332852;28;20081;-70
2023/10/22 08:02:53;;;;;;;4.10;0.38;;;;;;;16.76;66.51;97049.31;10332238;28;20504;-71
2023/10/22 08:08:13;;;;;;;1.63;0.43;;;;;;;17.24;66.11;97052.22;10333501;28;20445;-72
2023/10/22 08:13:34;;;;;;;0.43;0.30;;;;;;;21.64;63.47;97067.63;10332286;28;20122;-71
2023/10/22 08:18:55;;;;;;;4.03;0.90;;;;;;;27.39;52.83;97071.06;10318686;28;20076;-72
2023/10/22 08:24:16;;;;;;;3.63;0.40;;;;;;;28.29;45.48;97081.59;10318804;28;20069;-72
2023/10/22 08:29:37;;;;;;;2.42;0.47;;;;;;;29.32;43.53;97087.22;10332096;28;20066;-72
2023/10/22 08:34:58;;;;;;;0.75;0.32;;;;;;;27.94;39.89;97090.56;10333150;28;20142;-72
2023/10/22 08:40:21;;;;;;;2.70;0.27;;;;;;;27.63;38.94;97103.81;10333053;28;20493;-72
2023/10/22 08:45:45;;;;;;;2.42;0.82;;;;;;;29.88;35.84;97097.00;10331822;28;20038;-72
2023/10/22 08:51:10;;;;;;;1.63;0.50;;;;;;;32.06;33.11;97102.81;10332029;28;20115;-72
2023/10/22 08:56:32;;;;;;;1.45;0.40;;;;;;;39.32;24.33;97091.59;10331522;28;20054;-72
2023/10/22 09:01:53;;;;;;;2.35;0.40;;;;;;;41.93;17.74;97102.25;10331395;28;20066;-74
2023/10/22 09:07:13;;;;;;;1.13;0.25;;;;;;;44.32;16.33;97106.06;10331365;28;20104;-74
2023/10/22 09:12:37;;;;;;;1.95;0.20;;;;;;;45.17;13.26;97112.53;10318203;28;20109;-75
2023/10/22 09:18:00;;;;;;;1.13;0.30;;;;;;;46.14;13.04;97098.47;10337342;28;20046;-73
2023/10/22 09:23:21;;;;;;;1.13;0.30;;;;;;;45.89;12.03;97110.94;10324845;28;20077;-75
2023/10/22 09:28:42;;;;;;;1.10;0.25;;;;;;;46.39;11.41;97105.19;10324637;28;20496;-74
2023/10/22 09:34:03;;;;;;;1.05;0.20;;;;;;;46.88;11.18;97100.88;10337834;28;20043;-75
2023/10/22 09:39:43;;;;;;;0.68;0.20;;;;;;;45.66;10.40;97091.50;10338844;28;20042;-75
2023/10/22 09:45:04;;;;;;;0.93;0.20;;;;;;;45.02;11.20;97101.94;10323760;28;20547;-75
2023/10/22 09:50:25;;;;;;;1.58;0.30;;;;;;;44.54;10.77;97109.50;10337437;28;20471;-76
2023/10/22 09:55:48;;;;;;;1.73;0.38;;;;;;;46.31;10.49;97100.66;10337309;28;20050;-74
2023/10/22 10:01:13;;;;;;;2.15;0.30;;;;;;;47.79;9.66;97101.41;10323503;28;20054;-75
2023/10/22 10:06:35;;;;;;;1.70;0.30;;;;;;;48.32;8.95;97102.34;10322975;28;20069;-75
2023/10/22 10:11:58;;;;;;;2.88;0.30;;;;;;;46.45;8.68;97089.91;10322960;28;20077;-75
2023/10/22 10:17:19;;;;;;;1.27;0.30;;;;;;;45.74;10.10;97110.75;10336425;28;20061;-75
2023/10/22 10:22:42;;;;;;;0.88;0.30;;;;;;;45.15;10.61;97104.56;10336180;28;20141;-73
2023/10/22 10:28:08;;;;;;;1.90;0.20;;;;;;;45.85;9.83;97099.50;10335937;28;20046;-75
2023/10/22 10:34:00;;;;;;;1.38;0.30;;;;;;;43.21;10.92;97097.59;10335999;28;20468;-74
2023/10/22 10:39:54;;;;;;;1.17;0.38;;;;;;;39.31;13.50;97095.34;10304492;28;20408;-75
2023/10/22 10:45:18;;;;;;;0.90;0.30;;;;;;;40.72;13.04;97091.16;10335012;28;20038;-75
2023/10/22 10:50:40;;;;;;;1.67;0.30;;;;;;;38.72;14.01;97099.38;10335386;28;20484;-75
2023/10/22 10:56:00;;;;;;;2.83;0.43;;;;;;;36.25;16.13;97087.63;10334727;28;20042;-74
2023/10/22 11:01:21;;;;;;;1.02;0.30;;;;;;;35.17;17.65;97083.53;10335538;28;20061;-74
2023/10/22 11:06:42;;;;;;;0.82;0.30;;;;;;;38.29;16.43;97095.13;10335987;28;20061;-74
2023/10/22 11:12:04;;;;;;;1.13;0.40;;;;;;;40.00;14.39;97106.59;10320476;28;20066;-74
2023/10/22 11:17:24;;;;;;;1.23;0.40;;;;;;;38.88;14.79;97104.28;10334105;28;20431;-74
2023/10/22 11:22:45;;;;;;;1.98;0.45;;;;;;;38.92;14.97;97118.66;10333837;28;20472;-74
2023/10/22 11:28:07;;;;;;;1.85;0.32;;;;;;;38.91;14.32;97107.78;10334745;28;20058;-71
2023/10/22 11:33:29;;;;;;;1.73;0.40;;;;;;;33.50;17.00;97117.97;10333578;28;20177;-71
2023/10/22 11:38:50;;;;;;;1.42;0.50;;;;;;;34.50;16.81;97108.66;10332578;28;20080;-71
2023/10/22 11:44:34;;;;;;;1.30;0.40;;;;;;;32.41;18.41;97102.53;10332749;28;20125;-71
2023/10/22 11:49:56;;;;;;;2.25;0.43;;;;;;;29.73;22.01;97104.50;10332280;28;20122;-71
2023/10/22 11:55:17;;;;;;;2.17;0.23;;;;;;;27.55;25.31;97113.19;10333247;28;20394;-70
2023/10/22 12:00:56;;;;;;;1.73;0.47;;;;;;;26.28;26.84;97104.00;10321039;28;20556;-71
2023/10/22 12:06:16;;;;;;;3.10;0.43;;;;;;;25.62;28.38;97085.63;10333206;28;20133;-71
2023/10/22 12:11:37;;;;;;;2.05;0.40;;;;;;;23.85;30.28;97111.00;10332588;28;20070;-71
2023/10/22 12:16:58;;;;;;;3.10;0.45;;;;;;;23.60;31.36;97127.22;10332316;28;20465;-70
2023/10/22 12:22:19;;;;;;;1.48;0.30;;;;;;;23.02;31.74;97128.19;10332467;28;20077;-70
2023/10/22 12:27:40;;;;;;;4.67;0.53;;;;;;;22.00;33.20;97129.84;10332282;28;20122;-70
2023/10/22 12:33:02;;;;;;;1.38;0.30;;;;;;;21.67;34.35;97132.25;10332013;28;20042;-70
2023/10/22 12:38:22;;;;;;;1.23;0.30;;;;;;;21.98;33.71;97144.75;10318452;28;20168;-71
2023/10/22 12:43:43;;;;;;;2.13;0.50;;;;;;;22.44;33.35;97146.06;10331729;28;20077;-70
2023/10/22 12:49:04;;;;;;;3.00;0.45;;;;;;;22.36;33.65;97143.13;10332016;28;20143;-71
2023/10/22 12:54:25;;;;;;;3.75;0.73;;;;;;;22.70;33.58;97152.03;10339408;28;20118;-70
2023/10/22 12:59:45;;;;;;;1.33;0.40;;;;;;;23.10;33.44;97160.28;10339470;28;20066;-70
2023/10/22 13:05:07;;;;;;;2.72;0.35;;;;;;;22.61;33.12;97159.06;10338410;28;20058;-70
2023/10/22 13:10:46;;;;;;;2.60;0.50;;;;;;;22.26;33.54;97169.28;10338788;28;20116;-69
2023/10/22 13:16:07;;;;;;;2.08;0.50;;;;;;;21.36;34.93;97178.66;10338854;28;20126;-71
2023/10/22 13:21:28;;;;;;;2.70;0.50;;;;;;;21.27;35.27;97174.94;10339320;28;20177;-69
2023/10/22 13:26:49;;;;;;;3.35;0.40;;;;;;;20.80;35.69;97179.78;10339337;28;20086;-70
2023/10/22 13:32:10;;;;;;;2.50;0.30;;;;;;;20.28;36.02;97177.34;10338684;28;20136;-70
2023/10/22 13:37:31;;;;;;;2.15;0.38;;;;;;;19.83;36.45;97183.44;10338578;28;20126;-70
2023/10/22 13:42:52;;;;;;;2.58;0.43;;;;;;;19.71;37.06;97187.44;10337896;28;20078;-70
2023/10/22 13:48:13;;;;;;;1.88;0.38;;;;;;;19.80;36.87;97187.63;10337372;28;20496;-70
2023/10/22 13:53:34;;;;;;;3.67;0.50;;;;;;;19.87;36.94;97194.84;10337365;28;20424;-70
2023/10/22 13:58:54;;;;;;;3.58;0.50;;;;;;;19.91;37.13;97204.16;10337985;28;20053;-70
2023/10/22 14:04:15;;;;;;;2.03;0.65;;;;;;;19.88;36.86;97211.19;10337790;28;20081;-71
2023/10/22 14:09:36;;;;;;;1.55;0.30;;;;;;;19.52;37.41;97205.38;10322857;28;20066;-71
2023/10/22 14:15:10;;;;;;;2.17;0.30;;;;;;;19.31;37.62;97209.09;10336393;28;20042;-70
2023/10/22 14:20:34;;;;;;;3.13;0.40;;;;;;;19.15;37.83;97215.78;10337338;28;20128;-70
2023/10/22 14:25:56;;;;;;;2.30;0.50;;;;;;;18.94;37.82;97215.91;10337039;28;20074;-70
2023/10/22 14:31:19;;;;;;;2.00;0.32;;;;;;;18.67;37.94;97232.16;10321947;28;20536;-70
2023/10/22 14:36:40;;;;;;;3.75;0.45;;;;;;;18.59;37.91;97235.47;10321739;28;20066;-70
2023/10/22 14:42:01;;;;;;;3.53;0.60;;;;;;;18.41;37.98;97243.41;10335212;28;20073;-70
2023/10/22 14:47:22;;;;;;;3.63;0.70;;;;;;;18.24;38.20;97247.88;10335326;28;20053;-71
2023/10/22 14:52:43;;;;;;;2.10;0.40;;;;;;;18.09;38.59;97248.13;10336321;28;20169;-72
2023/10/22 14:58:04;;;;;;;2.70;0.57;;;;;;;17.93;38.99;97266.00;10334758;28;20046;-72
2023/10/22 15:03:25;;;;;;;6.25;0.65;;;;;;;17.47;39.48;97270.84;10335165;28;20089;-72
2023/10/22 15:08:47;;;;;;;3.45;0.55;;;;;;;17.24;39.69;97263.72;10334299;28;20421;-72
2023/10/22 15:14:09;;;;;;;2.85;0.68;;;;;;;17.03;40.18;97281.34;10333240;28;20465;-70
2023/10/22 15:19:31;;;;;;;4.47;0.60;;;;;;;16.83;40.74;97279.25;10333922;28;20100;-71
2023/10/22 15:24:52;;;;;;;3.88;0.80;;;;;;;16.54;41.07;97279.56;10334771;28;20070;-71
2023/10/22 15:30:13;;;;;;;2.58;0.60;;;;;;;16.38;41.75;97290.22;10334357;28;20073;-72
2023/10/22 15:35:33;;;;;;;7.55;0.85;;;;;;;16.16;42.05;97302.09;10334331;28;20062;-71
2023/10/22 15:40:59;;;;;;;4.85;0.52;;;;;;;15.94;42.88;97309.69;10333559;28;20129;-72
2023/10/22 15:46:21;;;;;;;2.67;0.57;;;;;;;15.82;43.05;97323.25;10333126;28;20120;-71
2023/10/22 15:51:42;;;;;;;3.65;0.65;;;;;;;15.72;43.64;97332.72;10332995;28;20047;-72
2023/10/22 15:57:03;;;;;;;2.00;0.60;;;;;;;15.57;43.76;97330.69;10332939;28;20114;-70
2023/10/22 16:02:24;;;;;;;3.42;0.60;;;;;;;15.44;44.49;97343.50;10318896;28;20074;-70
2023/10/22 16:07:44;;;;;;;2.55;0.70;;;;;;;15.40;45.46;97348.22;10332801;28;20047;-70
2023/10/22 16:13:05;;;;;;;5.70;0.85;;;;;;;15.40;45.21;97362.28;10332605;28;20464;-70
2023/10/22 16:18:26;;;;;;;2.65;0.65;;;;;;;15.21;45.44;97362.88;10332392;28;20538;-70
2023/10/22 16:23:47;;;;;;;3.60;0.85;;;;;;;15.02;46.02;97378.94;10320744;28;20042;-70
2023/10/22 16:29:08;;;;;;;3.92;0.85;;;;;;;14.77;46.17;97376.41;10341626;28;20385;-70
2023/10/22 16:34:29;;;;;;;4.90;0.95;;;;;;;14.50;46.66;97383.63;10340802;28;20125;-70
2023/10/22 16:39:49;;;;;;;3.20;0.63;;;;;;;14.36;47.20;97391.34;10326686;28;20126;-69
2023/10/22 16:45:10;;;;;;;4.65;1.38;;;;;;;14.31;47.87;97389.72;10340900;28;20073;-69
2023/10/22 16:50:31;;;;;;;3.70;1.27;;;;;;;14.24;47.79;97390.78;10340111;28;20038;-69
2023/10/22 16:55:52;;;;;;;5.85;1.30;;;;;;;14.07;48.38;97399.78;10339905;28;20057;-70
2023/10/22 17:01:13;;;;;;;7.22;1.00;;;;;;;13.89;48.93;97403.13;10339673;28;20100;-69
2023/10/22 17:06:33;;;;;;;4.55;1.20;;;;;;;13.75;49.05;97405.25;10339457;28;20082;-70
2023/10/22 17:11:54;;;;;;;6.00;1.40;;;;;;;13.62;49.40;97415.16;10339208;28;20062;-70
2023/10/22 17:17:15;;;;;;;6.13;1.70;;;;;;;13.48;49.62;97416.50;10338930;28;20066;-70
2023/10/22 17:22:36;;;;;;;5.30;1.33;;;;;;;13.33;49.76;97412.97;10338774;28;20069;-69
2023/10/22 17:27:56;;;;;;;4.57;1.35;;;;;;;13.16;50.25;97419.78;10338586;28;20043;-69
2023/10/22 17:33:17;;;;;;;5.18;1.42;;;;;;;13.03;50.88;97428.19;10338161;28;20074;-69
2023/10/22 17:38:38;;;;;;;6.70;1.45;;;;;;;12.96;50.78;97432.00;10337457;28;20454;-69
2023/10/22 17:43:59;;;;;;;6.15;1.85;;;;;;;12.88;51.53;97424.63;10337922;28;20457;-70
2023/10/22 17:49:20;;;;;;;9.60;2.10;;;;;;;12.88;51.39;97433.03;10338553;28;20121;-70
2023/10/22 17:54:44;;;;;;;;;;;;;;;12.90;52.01;97430.31;10324063;28;20062;-70
2023/10/22 18:00:06;;;;;;;14.20;7.03;;;;;;;12.96;51.62;97438.34;10338431;28;20287;-70
2023/10/22 18:05:31;;;;;;;15.73;4.70;;;;;;;13.00;52.25;97432.94;10323943;28;20136;-70
2023/10/22 18:10:58;;;;;;;11.57;3.25;;;;;;;13.16;52.18;97455.50;10336881;28;20057;-70
2023/10/22 18:16:19;;;;;;;9.15;2.13;;;;;;;13.32;51.85;97447.97;10337033;28;20046;-70
2023/10/22 18:21:40;;;;;;;6.57;2.00;;;;;;;13.52;51.82;97455.97;10336567;28;20440;-72
2023/10/22 18:27:01;;;;;;;6.15;2.08;;;;;;;13.69;51.79;97469.44;10322861;28;20125;-70
2023/10/22 18:32:22;;;;;;;6.13;1.88;;;;;;;13.81;51.74;97464.47;10337500;28;20114;-72
2023/10/22 18:37:43;;;;;;;4.22;1.50;;;;;;;13.91;51.70;97467.78;10336042;28;20054;-69
2023/10/22 18:43:04;;;;;;;2.97;0.90;;;;;;;13.98;51.64;97472.34;10322108;28;20057;-71
2023/10/22 18:48:25;;;;;;;4.45;1.23;;;;;;;14.08;51.52;97468.56;10334407;28;20062;-72
2023/10/22 18:53:46;;;;;;;5.70;1.60;;;;;;;14.12;51.61;97480.03;10336167;28;20066;-70
2023/10/22 18:59:07;;;;;;;6.63;1.80;;;;;;;14.13;51.54;97487.09;10321377;28;20120;-71
2023/10/22 19:04:30;;;;;;;8.52;1.73;;;;;;;14.12;51.53;97488.44;10334704;28;20263;-72
2023/10/22 19:09:51;;;;;;;5.82;2.20;;;;;;;14.02;51.32;97497.81;10335119;28;20077;-69
2023/10/22 19:15:12;;;;;;;6.03;2.33;;;;;;;13.89;51.24;97500.59;10334288;28;20062;-69
2023/10/22 19:20:36;;;;;;;7.72;2.17;;;;;;;13.69;51.64;97509.44;10335402;28;20118;-70
2023/10/22 19:25:57;;;;;;;8.53;2.17;;;;;;;13.54;51.87;97512.16;10334146;28;20069;-70
2023/10/22 19:31:19;;;;;;;7.15;1.85;;;;;;;13.38;52.00;97517.63;10335006;28;20042;-70
2023/10/22 19:36:40;;;;;;;9.13;2.17;;;;;;;13.16;52.33;97522.75;10333705;28;20066;-70
2023/10/22 19:42:01;;;;;;;5.30;2.28;;;;;;;12.96;52.64;97521.66;10319802;28;20101;-70
2023/10/22 19:47:21;;;;;;;7.32;2.78;;;;;;;12.82;53.18;97527.91;10333519;28;20113;-70
2023/10/22 19:52:42;;;;;;;10.63;3.33;;;;;;;12.77;53.65;97526.25;10333012;28;20038;-70
2023/10/22 19:58:05;;;;;;;6.90;3.13;;;;;;;12.74;53.66;97541.50;10332781;28;20053;-70
2023/10/22 20:03:26;;;;;;;12.90;3.53;;;;;;;12.71;53.83;97536.38;10332727;28;20134;-70
2023/10/22 20:08:49;;;;;;;9.82;2.97;;;;;;;12.68;54.61;97532.03;10332852;28;20476;-70
2023/10/22 20:14:10;;;;;;;7.22;3.03;;;;;;;12.73;54.44;97542.81;10332494;28;20081;-70
2023/10/22 20:19:31;;;;;;;7.47;2.50;;;;;;;12.72;54.68;97546.97;10333515;28;20070;-69
2023/10/22 20:24:51;;;;;;;8.65;2.53;;;;;;;12.78;54.88;97552.91;10332365;28;20100;-69
2023/10/22 20:30:13;;;;;;;6.65;1.77;;;;;;;12.87;54.94;97557.63;10333325;28;20039;-70
2023/10/22 20:35:34;;;;;;;6.10;1.70;;;;;;;12.96;55.00;97544.06;10318819;28;20097;-70
2023/10/22 20:41:02;;;;;;;7.93;1.65;;;;;;;13.06;54.73;97558.63;10333100;28;20050;-70
2023/10/22 20:46:23;;;;;;;8.15;1.83;;;;;;;13.11;54.57;97563.09;10318763;28;20073;-70
2023/10/22 20:51:44;;;;;;;5.22;1.55;;;;;;;13.15;54.56;97572.47;10332177;28;20080;-72
2023/10/22 20:57:05;;;;;;;8.25;1.88;;;;;;;13.23;54.63;97575.03;10332356;28;20066;-69
2023/10/22 21:02:26;;;;;;;5.75;1.75;;;;;;;13.22;54.56;97570.75;10332005;28;20449;-71
2023/10/22 21:07:47;;;;;;;5.72;1.67;;;;;;;13.15;54.45;97563.34;10333124;28;20050;-71
2023/10/22 21:13:07;;;;;;;5.47;1.60;;;;;;;13.00;54.65;97572.31;10340832;28;20522;-74
2023/10/22 21:18:28;;;;;;;6.30;1.00;;;;;;;12.78;54.75;97566.19;10344872;28;20042;-72
2023/10/22 21:23:49;;;;;;;7.72;1.60;;;;;;;12.58;54.98;97569.31;10326884;28;20072;-69
2023/10/22 21:29:09;;;;;;;5.00;1.20;;;;;;;12.48;55.15;97576.41;10338485;28;20066;-70
2023/10/22 21:34:31;;;;;;;7.10;1.38;;;;;;;12.35;55.19;97580.56;10339481;28;20070;-70
2023/10/22 21:39:52;;;;;;;6.03;1.17;;;;;;;12.25;55.41;97586.28;10325007;28;20073;-70
2023/10/22 21:45:13;;;;;;;7.43;1.55;;;;;;;12.20;55.81;97583.88;10339029;28;20049;-71
2023/10/22 21:50:34;;;;;;;6.80;1.30;;;;;;;12.12;55.68;97581.34;10337808;28;20046;-70
2023/10/22 21:55:55;;;;;;;5.28;1.10;;;;;;;12.02;56.08;97589.13;10323858;28;20050;-70
2023/10/22 22:01:16;;;;;;;9.25;1.42;;;;;;;11.91;56.09;97584.28;10337303;28;20050;-70
2023/10/22 22:06:37;;;;;;;6.07;1.60;;;;;;;11.79;56.52;97584.25;10336839;28;20054;-71
2023/10/22 22:11:57;;;;;;;6.18;1.50;;;;;;;11.71;56.71;97584.50;10336863;28;20404;-70
2023/10/22 22:17:18;;;;;;;6.80;1.40;;;;;;;11.63;56.93;97589.59;10337612;28;20113;-70
2023/10/22 22:22:39;;;;;;;4.60;1.35;;;;;;;11.52;57.34;97595.19;10336355;28;20050;-70
2023/10/22 22:28:00;;;;;;;8.20;1.73;;;;;;;11.47;57.64;97608.16;10336470;28;20477;-71
2023/10/22 22:33:21;;;;;;;7.90;1.73;;;;;;;11.32;57.69;97597.44;10336117;28;20073;-70
2023/10/22 22:38:43;;;;;;;6.45;1.35;;;;;;;11.22;58.29;97597.56;10336135;28;20042;-70
2023/10/22 22:44:03;;;;;;;8.18;1.90;;;;;;;11.16;58.83;97599.97;10335534;28;20397;-70
2023/10/22 22:49:24;;;;;;;6.13;1.48;;;;;;;11.13;59.34;97601.91;10336582;28;20050;-70
2023/10/22 22:54:45;;;;;;;6.07;1.40;;;;;;;11.08;59.28;97605.75;10335185;28;20065;-71
2023/10/22 23:00:07;;;;;;;4.43;1.23;;;;;;;11.02;59.51;97604.66;10336042;28;20078;-70
2023/10/22 23:05:28;;;;;;;6.00;1.67;;;;;;;10.98;59.47;97605.13;10334668;28;20058;-71
2023/10/22 23:10:49;;;;;;;4.22;0.90;;;;;;;10.90;60.01;97601.81;10334352;28;20476;-70
2023/10/22 23:16:10;;;;;;;5.03;1.42;;;;;;;10.89;59.90;97603.13;10321059;28;20047;-70
2023/10/22 23:21:30;;;;;;;4.32;1.38;;;;;;;10.88;60.25;97593.31;10320550;28;20046;-69
2023/10/22 23:26:51;;;;;;;5.93;1.55;;;;;;;10.93;60.65;97592.25;10334123;28;20038;-70
2023/10/22 23:32:12;;;;;;;7.20;1.63;;;;;;;10.97;60.68;97595.28;10333566;28;20069;-70
2023/10/22 23:37:33;;;;;;;5.50;1.23;;;;;;;10.99;60.61;97591.88;10333448;28;20046;-70
2023/10/22 23:42:54;;;;;;;3.03;1.10;;;;;;;11.02;60.91;97573.94;10320253;28;20046;-70
2023/10/22 23:48:15;;;;;;;3.75;1.42;;;;;;;11.00;60.89;97577.34;10319689;28;20104;-70
2023/10/22 23:53:36;;;;;;;4.93;1.20;;;;;;;11.06;61.41;97586.09;10333396;28;20157;-70
2023/10/22 23:58:57;;;;;;;5.60;1.27;;;;;;;11.03;61.43;97586.56;10334045;28;20057;-70
